Kejimkujik National Park, Canada
Current Conditions -  °F | °C
As of 3:00 PM on Thursday 23 Oct 2014 (Local Time) from CYZX Reporting Station
Light Rain Light Rain  
Wind Chill: 52°   Ceiling: 1200
Heat Index: 52°   Visibility: 5mi
Dew Point: 50°   Wind: 22mph
Humidity: 94%   Direction: 60°ENE
Pressure: 29.94"   Gusts: NA
Location:  44.37°N, 65.26°W
Report Text: CYZX 231800Z 06019KT 5SM -RA BR SCT008 OVC012 11/10 A2994 RMK SF3SF5 WNDY HILL 09023G32KT VIS VRB 3-7 SLP138
Loading
Personal Weather Stations






























Interactive Weather Map
Tropical Storm Tracking
New forecast layout! Learn more

10-Day Weather Forecast

Advertisements
Track Severe Weather on mobile